ESNN/SDL METAR and TAF weather

Enter ICAO airport designator
Station Type Date Time Source
ESNN METAR 2020/06/06 13:20 UTC NOAA

ESNN 061320Z AUTO 14009KT 100V170 9999 -DZ OVC003/// 12/11 Q0990 RERA


Station Type Date Time Source
ESNN Decoded METAR 2020/06/06 13:20 UTC NOAA

Sundsvall-Harnosand Flygplats, Sweden (ESNN) 62-32N 017-27E 10M
Jun 06, 2020 - 09:20 AM EDT / 2020.06.06 1320 UTC
Wind: from the SE (140 degrees) at 10 MPH (9 KT) (direction variable):0
Visibility: greater than 7 mile(s):0
Sky conditions: overcast
Weather: light drizzle
Temperature: 53 F (12 C)
Dew Point: 51 F (11 C)
Relative Humidity: 93%
Pressure (altimeter): 29.23 in. Hg (0990 hPa)
ob: ESNN 061320Z AUTO 14009KT 100V170 9999 -DZ OVC003/// 12/11 Q0990 RERA
cycle: 13

Station Type Date Time Source
ESNN TAF 2016/05/29 09:33 UTC NOAA

TAF TAF ESNN 290830Z 2909/3018 07006KT 9999 SCT045
BECMG 2913/2915 14010KT

Example: see airport list